Terminal Aerodrome Forecast
Issued by NWS Cleveland, OH

Home | Current Version | Previous Version | Text Only | Print | Product List | Glossary Off
Versions: 1 2 3 4 5 6 7 8 9 10 11 12 13 14

308
FTUS41 KCLE 171131
TAFYNG
TAF
KYNG 171131Z 1712/1812 09005KT 5SM BR SCT080
     FM171400 18004KT P6SM SCT040
     FM180600 VRB03KT 5SM BR FEW040=

USA.gov is the U.S. government's official web portal to all federal, state and local government web resources and services.